sensor_id;sensor_type;location;lat;lon;timestamp;pressure;altitude;pressure_sealevel;temperature;humidity
72721;BME280;60835;50.974;10.322;2023-06-19T00:00:42;98547.84;;;21.32;100.00
72721;BME280;60835;50.974;10.322;2023-06-19T00:03:08;98550.69;;;21.37;100.00
72721;BME280;60835;50.974;10.322;2023-06-19T00:05:35;98543.50;;;21.31;100.00
72721;BME280;60835;50.974;10.322;2023-06-19T00:08:02;98533.88;;;21.17;100.00
72721;BME280;60835;50.974;10.322;2023-06-19T00:10:30;98521.31;;;21.11;100.00
72721;BME280;60835;50.974;10.322;2023-06-19T00:12:57;98503.78;;;21.02;100.00
72721;BME280;60835;50.974;10.322;2023-06-19T00:15:23;98500.13;;;20.90;100.00
72721;BME280;60835;50.974;10.322;2023-06-19T00:17:50;98498.13;;;20.79;100.00
72721;BME280;60835;50.974;10.322;2023-06-19T00:20:17;98493.16;;;20.82;100.00
72721;BME280;60835;50.974;10.322;2023-06-19T00:22:44;98476.69;;;20.72;100.00
72721;BME280;60835;50.974;10.322;2023-06-19T00:25:10;98472.66;;;20.56;100.00
72721;BME280;60835;50.974;10.322;2023-06-19T00:27:37;98477.63;;;20.53;100.00
72721;BME280;60835;50.974;10.322;2023-06-19T00:30:05;98485.09;;;20.51;100.00
72721;BME280;60835;50.974;10.322;2023-06-19T00:32:32;98484.44;;;20.55;100.00
72721;BME280;60835;50.974;10.322;2023-06-19T00:34:58;98487.97;;;20.56;100.00
72721;BME280;60835;50.974;10.322;2023-06-19T00:37:27;98477.59;;;20.59;100.00
72721;BME280;60835;50.974;10.322;2023-06-19T00:39:58;98476.38;;;20.55;100.00
72721;BME280;60835;50.974;10.322;2023-06-19T00:42:24;98442.22;;;20.31;100.00
72721;BME280;60835;50.974;10.322;2023-06-19T00:44:51;98428.63;;;20.20;100.00
72721;BME280;60835;50.974;10.322;2023-06-19T00:47:17;98435.63;;;20.27;100.00
72721;BME280;60835;50.974;10.322;2023-06-19T00:49:45;98421.38;;;20.20;100.00
72721;BME280;60835;50.974;10.322;2023-06-19T00:52:11;98403.91;;;20.04;100.00
72721;BME280;60835;50.974;10.322;2023-06-19T00:54:38;98414.63;;;20.11;100.00
72721;BME280;60835;50.974;10.322;2023-06-19T00:57:05;98414.22;;;20.08;100.00
72721;BME280;60835;50.974;10.322;2023-06-19T00:59:31;98410.09;;;20.05;100.00
72721;BME280;60835;50.974;10.322;2023-06-19T01:01:58;98417.56;;;20.03;100.00
72721;BME280;60835;50.974;10.322;2023-06-19T01:04:25;98413.84;;;20.04;100.00
72721;BME280;60835;50.974;10.322;2023-06-19T01:06:58;98407.66;;;20.03;100.00
72721;BME280;60835;50.974;10.322;2023-06-19T01:09:32;98405.97;;;20.02;100.00
72721;BME280;60835;50.974;10.322;2023-06-19T01:12:11;98395.22;;;20.09;100.00
72721;BME280;60835;50.974;10.322;2023-06-19T01:14:53;98387.41;;;20.01;100.00
72721;BME280;60835;50.974;10.322;2023-06-19T01:17:21;98388.66;;;19.98;100.00
72721;BME280;60835;50.974;10.322;2023-06-19T01:19:48;98375.09;;;19.87;100.00
72721;BME280;60835;50.974;10.322;2023-06-19T01:24:50;98354.88;;;19.84;100.00
72721;BME280;60835;50.974;10.322;2023-06-19T01:27:17;98355.00;;;19.96;100.00
72721;BME280;60835;50.974;10.322;2023-06-19T01:29:43;98346.75;;;19.91;100.00
72721;BME280;60835;50.974;10.322;2023-06-19T01:32:13;98344.53;;;19.88;100.00
72721;BME280;60835;50.974;10.322;2023-06-19T01:34:42;98346.56;;;19.92;100.00
72721;BME280;60835;50.974;10.322;2023-06-19T01:37:10;98345.53;;;19.93;100.00
72721;BME280;60835;50.974;10.322;2023-06-19T01:39:37;98364.75;;;19.90;100.00
72721;BME280;60835;50.974;10.322;2023-06-19T01:42:04;98358.16;;;19.86;100.00
72721;BME280;60835;50.974;10.322;2023-06-19T01:44:32;98335.50;;;19.76;100.00
72721;BME280;60835;50.974;10.322;2023-06-19T01:46:58;98312.25;;;19.57;100.00
72721;BME280;60835;50.974;10.322;2023-06-19T01:49:25;98315.16;;;19.62;100.00
72721;BME280;60835;50.974;10.322;2023-06-19T01:51:52;98292.69;;;19.50;100.00
72721;BME280;60835;50.974;10.322;2023-06-19T01:54:18;98285.63;;;19.62;100.00
72721;BME280;60835;50.974;10.322;2023-06-19T01:56:45;98248.09;;;19.49;100.00
72721;BME280;60835;50.974;10.322;2023-06-19T01:59:12;98250.38;;;19.52;100.00
72721;BME280;60835;50.974;10.322;2023-06-19T02:01:38;98238.22;;;19.49;100.00
72721;BME280;60835;50.974;10.322;2023-06-19T02:04:05;98208.97;;;19.34;100.00
72721;BME280;60835;50.974;10.322;2023-06-19T02:06:32;98218.00;;;19.47;100.00
72721;BME280;60835;50.974;10.322;2023-06-19T02:08:58;98202.53;;;19.35;100.00
72721;BME280;60835;50.974;10.322;2023-06-19T02:11:25;98194.97;;;19.32;100.00
72721;BME280;60835;50.974;10.322;2023-06-19T02:13:51;98190.41;;;19.39;100.00
72721;BME280;60835;50.974;10.322;2023-06-19T02:16:18;98173.75;;;19.24;100.00
72721;BME280;60835;50.974;10.322;2023-06-19T02:18:44;98127.34;;;19.17;100.00
72721;BME280;60835;50.974;10.322;2023-06-19T02:21:11;98077.19;;;18.93;100.00
72721;BME280;60835;50.974;10.322;2023-06-19T02:23:37;98029.03;;;18.80;100.00
72721;BME280;60835;50.974;10.322;2023-06-19T02:26:04;98026.50;;;18.85;100.00
72721;BME280;60835;50.974;10.322;2023-06-19T02:28:30;98043.41;;;18.92;100.00
72721;BME280;60835;50.974;10.322;2023-06-19T02:30:57;98059.81;;;19.02;100.00
72721;BME280;60835;50.974;10.322;2023-06-19T02:33:24;98070.97;;;18.99;100.00
72721;BME280;60835;50.974;10.322;2023-06-19T02:35:50;98075.25;;;19.07;100.00
72721;BME280;60835;50.974;10.322;2023-06-19T02:38:17;98057.72;;;19.04;100.00
72721;BME280;60835;50.974;10.322;2023-06-19T02:40:47;98061.91;;;19.00;100.00
72721;BME280;60835;50.974;10.322;2023-06-19T02:43:14;98029.03;;;18.80;100.00
72721;BME280;60835;50.974;10.322;2023-06-19T02:45:40;98020.13;;;18.86;100.00
72721;BME280;60835;50.974;10.322;2023-06-19T02:48:07;98024.91;;;18.84;100.00
72721;BME280;60835;50.974;10.322;2023-06-19T02:50:33;98015.19;;;18.83;100.00
72721;BME280;60835;50.974;10.322;2023-06-19T02:53:00;98022.38;;;18.89;100.00
72721;BME280;60835;50.974;10.322;2023-06-19T02:55:27;98010.44;;;18.85;100.00
72721;BME280;60835;50.974;10.322;2023-06-19T02:57:53;98003.78;;;18.94;100.00
72721;BME280;60835;50.974;10.322;2023-06-19T03:00:20;98013.66;;;19.00;100.00
72721;BME280;60835;50.974;10.322;2023-06-19T03:02:47;98016.53;;;18.99;100.00
72721;BME280;60835;50.974;10.322;2023-06-19T03:05:15;98008.72;;;18.97;100.00
72721;BME280;60835;50.974;10.322;2023-06-19T03:07:42;98006.69;;;18.93;100.00
72721;BME280;60835;50.974;10.322;2023-06-19T03:10:09;98021.88;;;18.99;100.00
72721;BME280;60835;50.974;10.322;2023-06-19T03:12:36;98032.41;;;19.00;100.00
72721;BME280;60835;50.974;10.322;2023-06-19T03:15:03;98041.47;;;18.99;100.00
72721;BME280;60835;50.974;10.322;2023-06-19T03:17:29;98020.19;;;19.04;100.00
72721;BME280;60835;50.974;10.322;2023-06-19T03:19:56;98044.94;;;19.06;100.00
72721;BME280;60835;50.974;10.322;2023-06-19T03:22:23;98038.69;;;19.12;100.00
72721;BME280;60835;50.974;10.322;2023-06-19T03:24:50;98028.50;;;18.96;100.00
72721;BME280;60835;50.974;10.322;2023-06-19T03:27:16;98031.31;;;19.08;100.00
72721;BME280;60835;50.974;10.322;2023-06-19T03:29:43;98053.03;;;19.00;100.00
72721;BME280;60835;50.974;10.322;2023-06-19T03:32:09;98017.75;;;19.03;100.00
72721;BME280;60835;50.974;10.322;2023-06-19T03:34:36;98056.44;;;19.13;100.00
72721;BME280;60835;50.974;10.322;2023-06-19T03:37:03;98021.53;;;18.95;100.00
72721;BME280;60835;50.974;10.322;2023-06-19T03:39:29;98056.59;;;19.18;100.00
72721;BME280;60835;50.974;10.322;2023-06-19T03:41:56;98038.28;;;19.15;100.00
72721;BME280;60835;50.974;10.322;2023-06-19T03:44:22;98026.81;;;19.02;100.00
72721;BME280;60835;50.974;10.322;2023-06-19T03:46:49;98032.91;;;19.15;100.00
72721;BME280;60835;50.974;10.322;2023-06-19T03:49:16;98021.03;;;19.05;100.00
72721;BME280;60835;50.974;10.322;2023-06-19T03:51:44;98019.78;;;19.07;100.00
72721;BME280;60835;50.974;10.322;2023-06-19T03:54:10;97986.72;;;18.89;100.00
72721;BME280;60835;50.974;10.322;2023-06-19T03:56:37;97929.53;;;18.70;100.00
72721;BME280;60835;50.974;10.322;2023-06-19T03:59:04;97934.53;;;18.91;100.00
72721;BME280;60835;50.974;10.322;2023-06-19T04:01:30;97951.28;;;19.11;100.00
72721;BME280;60835;50.974;10.322;2023-06-19T04:03:57;97977.47;;;19.09;100.00
72721;BME280;60835;50.974;10.322;2023-06-19T04:06:24;97977.25;;;19.11;100.00
72721;BME280;60835;50.974;10.322;2023-06-19T04:08:51;97977.31;;;19.04;100.00
72721;BME280;60835;50.974;10.322;2023-06-19T04:11:18;97996.66;;;19.06;100.00
72721;BME280;60835;50.974;10.322;2023-06-19T04:13:44;98011.03;;;19.18;100.00
72721;BME280;60835;50.974;10.322;2023-06-19T04:16:11;98019.56;;;19.33;100.00
72721;BME280;60835;50.974;10.322;2023-06-19T04:18:38;98030.06;;;19.35;100.00
72721;BME280;60835;50.974;10.322;2023-06-19T04:21:05;98049.81;;;19.47;100.00
72721;BME280;60835;50.974;10.322;2023-06-19T04:23:31;98023.47;;;19.37;100.00
72721;BME280;60835;50.974;10.322;2023-06-19T04:25:58;98019.13;;;19.36;100.00
72721;BME280;60835;50.974;10.322;2023-06-19T04:28:24;98002.72;;;19.26;100.00
72721;BME280;60835;50.974;10.322;2023-06-19T04:30:52;98004.72;;;19.37;100.00
72721;BME280;60835;50.974;10.322;2023-06-19T04:33:27;98003.66;;;19.38;100.00
72721;BME280;60835;50.974;10.322;2023-06-19T04:35:55;98017.47;;;19.35;100.00
72721;BME280;60835;50.974;10.322;2023-06-19T04:38:22;98023.63;;;19.42;100.00
72721;BME280;60835;50.974;10.322;2023-06-19T04:40:52;98040.22;;;19.58;100.00
72721;BME280;60835;50.974;10.322;2023-06-19T04:43:19;98042.63;;;19.66;100.00
72721;BME280;60835;50.974;10.322;2023-06-19T04:45:45;98044.59;;;19.52;100.00
72721;BME280;60835;50.974;10.322;2023-06-19T04:48:12;98063.97;;;19.54;100.00
72721;BME280;60835;50.974;10.322;2023-06-19T04:50:39;98080.03;;;19.61;100.00
72721;BME280;60835;50.974;10.322;2023-06-19T04:53:05;98090.69;;;19.67;100.00
72721;BME280;60835;50.974;10.322;2023-06-19T04:55:32;98100.63;;;19.67;100.00
72721;BME280;60835;50.974;10.322;2023-06-19T04:57:59;98089.81;;;19.49;100.00
72721;BME280;60835;50.974;10.322;2023-06-19T05:00:25;98101.16;;;19.51;100.00
72721;BME280;60835;50.974;10.322;2023-06-19T05:02:53;98109.22;;;19.51;100.00
72721;BME280;60835;50.974;10.322;2023-06-19T05:05:20;98111.41;;;19.60;100.00
72721;BME280;60835;50.974;10.322;2023-06-19T05:07:50;98115.97;;;19.78;100.00
72721;BME280;60835;50.974;10.322;2023-06-19T05:10:17;98103.06;;;19.68;100.00
72721;BME280;60835;50.974;10.322;2023-06-19T05:12:44;98110.03;;;19.76;100.00
72721;BME280;60835;50.974;10.322;2023-06-19T05:15:10;98102.50;;;19.84;100.00
72721;BME280;60835;50.974;10.322;2023-06-19T05:17:37;98097.41;;;20.01;100.00
72721;BME280;60835;50.974;10.322;2023-06-19T05:20:05;98124.13;;;20.14;100.00
72721;BME280;60835;50.974;10.322;2023-06-19T05:22:35;98136.63;;;20.20;100.00
72721;BME280;60835;50.974;10.322;2023-06-19T05:25:03;98175.22;;;20.50;100.00
72721;BME280;60835;50.974;10.322;2023-06-19T05:27:29;98182.28;;;20.63;100.00
72721;BME280;60835;50.974;10.322;2023-06-19T05:29:55;98212.09;;;20.80;100.00
72721;BME280;60835;50.974;10.322;2023-06-19T05:32:22;98225.47;;;20.86;100.00
72721;BME280;60835;50.974;10.322;2023-06-19T05:34:48;98235.69;;;20.96;100.00
72721;BME280;60835;50.974;10.322;2023-06-19T05:37:16;98250.19;;;20.95;100.00
72721;BME280;60835;50.974;10.322;2023-06-19T05:39:43;98238.84;;;20.75;100.00
72721;BME280;60835;50.974;10.322;2023-06-19T05:42:09;98238.09;;;20.86;100.00
72721;BME280;60835;50.974;10.322;2023-06-19T05:44:36;98249.28;;;21.01;100.00
72721;BME280;60835;50.974;10.322;2023-06-19T05:47:02;98234.97;;;20.89;100.00
72721;BME280;60835;50.974;10.322;2023-06-19T05:49:29;98249.06;;;20.84;100.00
72721;BME280;60835;50.974;10.322;2023-06-19T05:51:55;98255.56;;;20.95;100.00
72721;BME280;60835;50.974;10.322;2023-06-19T05:54:25;98284.41;;;20.88;100.00
72721;BME280;60835;50.974;10.322;2023-06-19T05:56:52;98278.72;;;20.96;100.00
72721;BME280;60835;50.974;10.322;2023-06-19T05:59:19;98277.47;;;20.98;100.00
72721;BME280;60835;50.974;10.322;2023-06-19T06:01:46;98295.91;;;20.95;100.00
72721;BME280;60835;50.974;10.322;2023-06-19T06:04:12;98312.66;;;20.97;100.00
72721;BME280;60835;50.974;10.322;2023-06-19T06:06:40;98327.63;;;21.11;100.00
72721;BME280;60835;50.974;10.322;2023-06-19T06:09:07;98319.69;;;21.16;100.00
72721;BME280;60835;50.974;10.322;2023-06-19T06:11:37;98334.28;;;21.27;100.00
72721;BME280;60835;50.974;10.322;2023-06-19T06:14:04;98324.78;;;21.24;100.00
72721;BME280;60835;50.974;10.322;2023-06-19T06:16:30;98347.72;;;21.45;100.00
72721;BME280;60835;50.974;10.322;2023-06-19T06:18:57;98339.25;;;21.59;100.00
72721;BME280;60835;50.974;10.322;2023-06-19T06:21:24;98337.88;;;21.68;100.00
72721;BME280;60835;50.974;10.322;2023-06-19T06:23:51;98361.72;;;21.83;100.00
72721;BME280;60835;50.974;10.322;2023-06-19T06:26:18;98369.75;;;21.90;100.00
72721;BME280;60835;50.974;10.322;2023-06-19T06:28:45;98371.69;;;21.82;100.00
72721;BME280;60835;50.974;10.322;2023-06-19T06:31:11;98367.22;;;21.95;100.00
72721;BME280;60835;50.974;10.322;2023-06-19T06:33:38;98374.97;;;21.84;100.00
72721;BME280;60835;50.974;10.322;2023-06-19T06:36:04;98375.75;;;21.92;100.00
72721;BME280;60835;50.974;10.322;2023-06-19T06:38:34;98394.81;;;22.20;100.00
72721;BME280;60835;50.974;10.322;2023-06-19T06:41:00;98401.63;;;22.22;100.00
72721;BME280;60835;50.974;10.322;2023-06-19T06:43:27;98402.13;;;22.31;100.00
72721;BME280;60835;50.974;10.322;2023-06-19T06:45:54;98378.31;;;22.28;100.00
72721;BME280;60835;50.974;10.322;2023-06-19T06:48:21;98397.81;;;22.53;100.00
72721;BME280;60835;50.974;10.322;2023-06-19T06:50:47;98381.50;;;22.66;100.00
72721;BME280;60835;50.974;10.322;2023-06-19T06:53:14;98378.31;;;22.69;100.00
72721;BME280;60835;50.974;10.322;2023-06-19T06:55:40;98421.75;;;23.02;100.00
72721;BME280;60835;50.974;10.322;2023-06-19T06:58:07;98435.81;;;23.28;100.00
72721;BME280;60835;50.974;10.322;2023-06-19T07:00:34;98473.53;;;23.69;100.00
72721;BME280;60835;50.974;10.322;2023-06-19T07:03:00;98503.97;;;24.04;100.00
72721;BME280;60835;50.974;10.322;2023-06-19T07:05:27;98541.34;;;24.59;100.00
72721;BME280;60835;50.974;10.322;2023-06-19T07:07:56;98582.50;;;26.00;100.00
72721;BME280;60835;50.974;10.322;2023-06-19T07:10:22;98607.44;;;26.36;100.00
72721;BME280;60835;50.974;10.322;2023-06-19T07:12:50;98603.41;;;25.50;100.00
72721;BME280;60835;50.974;10.322;2023-06-19T07:15:18;98584.91;;;24.86;100.00
72721;BME280;60835;50.974;10.322;2023-06-19T07:17:45;98589.59;;;24.50;100.00
72721;BME280;60835;50.974;10.322;2023-06-19T07:20:12;98626.09;;;24.25;100.00
72721;BME280;60835;50.974;10.322;2023-06-19T07:22:39;98642.31;;;24.25;100.00
72721;BME280;60835;50.974;10.322;2023-06-19T07:25:08;98644.78;;;24.38;100.00
72721;BME280;60835;50.974;10.322;2023-06-19T07:27:36;98654.03;;;24.07;100.00
72721;BME280;60835;50.974;10.322;2023-06-19T07:30:03;98639.56;;;24.01;100.00
72721;BME280;60835;50.974;10.322;2023-06-19T07:32:30;98647.25;;;24.28;100.00
72721;BME280;60835;50.974;10.322;2023-06-19T07:34:56;98640.78;;;24.05;100.00
72721;BME280;60835;50.974;10.322;2023-06-19T07:37:23;98650.31;;;24.19;100.00
72721;BME280;60835;50.974;10.322;2023-06-19T07:39:51;98635.25;;;23.77;100.00
72721;BME280;60835;50.974;10.322;2023-06-19T07:42:19;98634.56;;;23.93;100.00
72721;BME280;60835;50.974;10.322;2023-06-19T07:44:46;98631.00;;;24.04;100.00
72721;BME280;60835;50.974;10.322;2023-06-19T07:47:13;98627.84;;;24.07;100.00
72721;BME280;60835;50.974;10.322;2023-06-19T07:49:40;98638.78;;;24.36;100.00
72721;BME280;60835;50.974;10.322;2023-06-19T07:52:07;98633.59;;;24.22;100.00
72721;BME280;60835;50.974;10.322;2023-06-19T07:54:36;98640.66;;;24.23;100.00
72721;BME280;60835;50.974;10.322;2023-06-19T07:57:02;98645.31;;;24.63;100.00
72721;BME280;60835;50.974;10.322;2023-06-19T07:59:29;98655.91;;;24.64;100.00
72721;BME280;60835;50.974;10.322;2023-06-19T08:01:55;98646.75;;;24.54;100.00
72721;BME280;60835;50.974;10.322;2023-06-19T08:04:22;98654.50;;;25.30;100.00
72721;BME280;60835;50.974;10.322;2023-06-19T08:06:48;98661.78;;;24.61;100.00
72721;BME280;60835;50.974;10.322;2023-06-19T08:09:16;98645.66;;;25.06;100.00
72721;BME280;60835;50.974;10.322;2023-06-19T08:11:42;98666.91;;;25.42;100.00
72721;BME280;60835;50.974;10.322;2023-06-19T08:14:09;98650.41;;;25.27;100.00
72721;BME280;60835;50.974;10.322;2023-06-19T08:16:36;98662.44;;;25.20;100.00
72721;BME280;60835;50.974;10.322;2023-06-19T08:19:02;98630.69;;;24.36;100.00
72721;BME280;60835;50.974;10.322;2023-06-19T08:21:29;98655.31;;;25.02;100.00
72721;BME280;60835;50.974;10.322;2023-06-19T08:23:55;98648.19;;;25.86;100.00
72721;BME280;60835;50.974;10.322;2023-06-19T08:26:22;98678.84;;;27.23;100.00
72721;BME280;60835;50.974;10.322;2023-06-19T08:28:49;98695.28;;;28.23;100.00
72721;BME280;60835;50.974;10.322;2023-06-19T08:31:15;98689.47;;;28.10;100.00
72721;BME280;60835;50.974;10.322;2023-06-19T08:33:43;98688.88;;;28.96;100.00
72721;BME280;60835;50.974;10.322;2023-06-19T08:36:10;98680.41;;;28.41;100.00
72721;BME280;60835;50.974;10.322;2023-06-19T08:38:36;98698.16;;;29.88;100.00
72721;BME280;60835;50.974;10.322;2023-06-19T08:41:03;98703.88;;;29.96;100.00
72721;BME280;60835;50.974;10.322;2023-06-19T08:43:29;98692.91;;;29.56;100.00
72721;BME280;60835;50.974;10.322;2023-06-19T08:46:09;98700.75;;;29.27;100.00
72721;BME280;60835;50.974;10.322;2023-06-19T08:48:37;98686.06;;;28.71;100.00
72721;BME280;60835;50.974;10.322;2023-06-19T08:51:05;98683.50;;;29.07;100.00
72721;BME280;60835;50.974;10.322;2023-06-19T08:53:37;98701.16;;;30.42;100.00
72721;BME280;60835;50.974;10.322;2023-06-19T08:56:10;98695.66;;;30.52;100.00
72721;BME280;60835;50.974;10.322;2023-06-19T08:58:37;98684.69;;;30.67;100.00
72721;BME280;60835;50.974;10.322;2023-06-19T09:01:04;98681.56;;;31.04;100.00
72721;BME280;60835;50.974;10.322;2023-06-19T09:03:31;98676.50;;;30.67;100.00
72721;BME280;60835;50.974;10.322;2023-06-19T09:06:08;98691.72;;;30.83;100.00
72721;BME280;60835;50.974;10.322;2023-06-19T09:08:35;98673.53;;;29.57;100.00
72721;BME280;60835;50.974;10.322;2023-06-19T09:11:03;98693.50;;;31.67;100.00
72721;BME280;60835;50.974;10.322;2023-06-19T09:13:31;98697.44;;;31.56;100.00
72721;BME280;60835;50.974;10.322;2023-06-19T09:15:58;98681.56;;;31.58;100.00
72721;BME280;60835;50.974;10.322;2023-06-19T09:18:26;98687.38;;;30.77;100.00
72721;BME280;60835;50.974;10.322;2023-06-19T09:20:53;98682.84;;;31.21;100.00
72721;BME280;60835;50.974;10.322;2023-06-19T09:23:20;98658.66;;;31.44;100.00
72721;BME280;60835;50.974;10.322;2023-06-19T09:25:52;98670.00;;;30.43;100.00
72721;BME280;60835;50.974;10.322;2023-06-19T09:28:27;98673.72;;;30.77;100.00
72721;BME280;60835;50.974;10.322;2023-06-19T09:31:01;98677.09;;;30.34;100.00
72721;BME280;60835;50.974;10.322;2023-06-19T09:33:31;98678.22;;;30.38;100.00
72721;BME280;60835;50.974;10.322;2023-06-19T09:35:59;98658.59;;;29.80;100.00
72721;BME280;60835;50.974;10.322;2023-06-19T09:38:37;98674.22;;;30.89;100.00
72721;BME280;60835;50.974;10.322;2023-06-19T09:41:05;98676.47;;;31.36;100.00
72721;BME280;60835;50.974;10.322;2023-06-19T09:43:42;98677.91;;;32.64;100.00
72721;BME280;60835;50.974;10.322;2023-06-19T09:46:10;98681.09;;;32.71;100.00
72721;BME280;60835;50.974;10.322;2023-06-19T09:48:41;98681.50;;;31.14;100.00
72721;BME280;60835;50.974;10.322;2023-06-19T09:51:30;98675.91;;;32.93;100.00
72721;BME280;60835;50.974;10.322;2023-06-19T09:53:57;98679.69;;;32.21;100.00
72721;BME280;60835;50.974;10.322;2023-06-19T09:56:26;98680.03;;;31.37;100.00
72721;BME280;60835;50.974;10.322;2023-06-19T09:58:56;98673.03;;;30.26;100.00
72721;BME280;60835;50.974;10.322;2023-06-19T10:01:29;98681.50;;;32.30;100.00
72721;BME280;60835;50.974;10.322;2023-06-19T10:04:08;98677.44;;;31.94;100.00
72721;BME280;60835;50.974;10.322;2023-06-19T10:06:47;98679.84;;;33.66;100.00
72721;BME280;60835;50.974;10.322;2023-06-19T10:09:15;98669.44;;;33.26;100.00
72721;BME280;60835;50.974;10.322;2023-06-19T10:11:47;98681.09;;;32.18;100.00
72721;BME280;60835;50.974;10.322;2023-06-19T10:14:14;98677.91;;;33.86;100.00
72721;BME280;60835;50.974;10.322;2023-06-19T10:16:45;98677.53;;;32.94;100.00
72721;BME280;60835;50.974;10.322;2023-06-19T10:19:16;98676.56;;;31.99;100.00
72721;BME280;60835;50.974;10.322;2023-06-19T10:21:53;98668.19;;;32.47;100.00
72721;BME280;60835;50.974;10.322;2023-06-19T10:24:20;98671.75;;;31.85;100.00
72721;BME280;60835;50.974;10.322;2023-06-19T10:27:01;98681.31;;;31.00;100.00
72721;BME280;60835;50.974;10.322;2023-06-19T10:29:51;98666.69;;;33.07;100.00
72721;BME280;60835;50.974;10.322;2023-06-19T10:32:38;98671.88;;;31.26;100.00
72721;BME280;60835;50.974;10.322;2023-06-19T10:35:11;98681.16;;;33.88;100.00
72721;BME280;60835;50.974;10.322;2023-06-19T10:37:38;98671.72;;;34.85;100.00
72721;BME280;60835;50.974;10.322;2023-06-19T10:40:06;98670.88;;;34.85;100.00
72721;BME280;60835;50.974;10.322;2023-06-19T10:42:42;98680.06;;;33.51;100.00
72721;BME280;60835;50.974;10.322;2023-06-19T10:45:11;98665.69;;;33.78;100.00
72721;BME280;60835;50.974;10.322;2023-06-19T10:47:39;98671.00;;;33.32;100.00
72721;BME280;60835;50.974;10.322;2023-06-19T10:50:24;98664.88;;;34.69;100.00
72721;BME280;60835;50.974;10.322;2023-06-19T10:52:53;98671.34;;;33.07;100.00
72721;BME280;60835;50.974;10.322;2023-06-19T10:55:21;98663.69;;;32.62;100.00
72721;BME280;60835;50.974;10.322;2023-06-19T10:57:49;98665.78;;;32.70;100.00
72721;BME280;60835;50.974;10.322;2023-06-19T11:00:26;98661.31;;;32.97;100.00
72721;BME280;60835;50.974;10.322;2023-06-19T11:02:53;98666.94;;;33.48;100.00
72721;BME280;60835;50.974;10.322;2023-06-19T11:05:23;98661.03;;;33.23;100.00
72721;BME280;60835;50.974;10.322;2023-06-19T11:07:56;98668.34;;;34.61;100.00
72721;BME280;60835;50.974;10.322;2023-06-19T11:10:27;98662.50;;;34.03;100.00
72721;BME280;60835;50.974;10.322;2023-06-19T11:12:55;98667.06;;;32.54;100.00
72721;BME280;60835;50.974;10.322;2023-06-19T11:15:33;98666.03;;;32.92;100.00
72721;BME280;60835;50.974;10.322;2023-06-19T11:18:01;98659.25;;;32.13;100.00
72721;BME280;60835;50.974;10.322;2023-06-19T11:20:28;98656.72;;;30.95;100.00
72721;BME280;60835;50.974;10.322;2023-06-19T11:22:59;98665.47;;;33.56;100.00
72721;BME280;60835;50.974;10.322;2023-06-19T11:25:37;98675.25;;;31.13;100.00
72721;BME280;60835;50.974;10.322;2023-06-19T11:28:05;98674.84;;;30.71;100.00
72721;BME280;60835;50.974;10.322;2023-06-19T11:30:36;98670.34;;;31.10;100.00
72721;BME280;60835;50.974;10.322;2023-06-19T11:33:03;98668.13;;;32.00;100.00
72721;BME280;60835;50.974;10.322;2023-06-19T11:35:33;98651.59;;;31.76;100.00
72721;BME280;60835;50.974;10.322;2023-06-19T11:38:03;98655.13;;;32.39;100.00
72721;BME280;60835;50.974;10.322;2023-06-19T11:40:38;98650.75;;;32.67;100.00
72721;BME280;60835;50.974;10.322;2023-06-19T11:43:05;98662.44;;;32.20;100.00
72721;BME280;60835;50.974;10.322;2023-06-19T11:45:32;98658.03;;;33.19;100.00
72721;BME280;60835;50.974;10.322;2023-06-19T11:47:58;98667.13;;;33.89;100.00
72721;BME280;60835;50.974;10.322;2023-06-19T11:50:28;98656.84;;;34.13;100.00
72721;BME280;60835;50.974;10.322;2023-06-19T11:52:56;98650.47;;;34.32;100.00
72721;BME280;60835;50.974;10.322;2023-06-19T11:55:26;98661.19;;;35.64;100.00
72721;BME280;60835;50.974;10.322;2023-06-19T11:57:53;98653.91;;;34.69;100.00
72721;BME280;60835;50.974;10.322;2023-06-19T12:00:19;98659.19;;;35.07;100.00
72721;BME280;60835;50.974;10.322;2023-06-19T12:02:46;98670.78;;;33.85;100.00
72721;BME280;60835;50.974;10.322;2023-06-19T12:05:14;98666.66;;;32.36;100.00
72721;BME280;60835;50.974;10.322;2023-06-19T12:07:40;98656.66;;;32.98;100.00
72721;BME280;60835;50.974;10.322;2023-06-19T12:10:07;98670.28;;;33.03;100.00
72721;BME280;60835;50.974;10.322;2023-06-19T12:12:37;98660.88;;;32.67;100.00
72721;BME280;60835;50.974;10.322;2023-06-19T12:15:04;98659.03;;;31.71;100.00
72721;BME280;60835;50.974;10.322;2023-06-19T12:17:31;98648.75;;;32.20;100.00
72721;BME280;60835;50.974;10.322;2023-06-19T12:20:00;98654.53;;;31.85;100.00
72721;BME280;60835;50.974;10.322;2023-06-19T12:22:27;98660.78;;;33.19;100.00
72721;BME280;60835;50.974;10.322;2023-06-19T12:24:54;98665.22;;;33.15;100.00
72721;BME280;60835;50.974;10.322;2023-06-19T12:27:20;98654.03;;;32.40;100.00
72721;BME280;60835;50.974;10.322;2023-06-19T12:29:47;98649.47;;;31.68;100.00
72721;BME280;60835;50.974;10.322;2023-06-19T12:32:13;98651.72;;;31.95;100.00
72721;BME280;60835;50.974;10.322;2023-06-19T12:34:40;98625.47;;;32.23;100.00
72721;BME280;60835;50.974;10.322;2023-06-19T12:37:06;98643.94;;;32.83;100.00
72721;BME280;60835;50.974;10.322;2023-06-19T12:39:33;98643.25;;;32.73;100.00
72721;BME280;60835;50.974;10.322;2023-06-19T12:42:00;98640.31;;;31.05;100.00
72721;BME280;60835;50.974;10.322;2023-06-19T12:44:27;98621.59;;;30.73;100.00
72721;BME280;60835;50.974;10.322;2023-06-19T12:46:53;98612.75;;;29.87;100.00